Fulton, Texas
Current Conditions -  °F | °C
As of 3:53 AM on Saturday 01 Nov 2014 (Local Time) from KRKP Reporting Station
Clear Clear  
Wind Chill: 58°   Ceiling: Unl
Heat Index: 58°   Visibility: 10mi
Dew Point: 46°   Wind: 12mph
Humidity: 65%   Direction: 20°NNE
Pressure: 30.27"   Gusts: NA
Location:  28.06°N, 97.04°W
Report Text: KRKP 010853Z AUTO 02010KT 10SM CLR 14/08 A3027 RMK AO2 SLP252 T01440078 51001
Loading
Personal Weather Stations






























Interactive Weather Map
Tropical Storm Tracking
New forecast layout! Learn more

10-Day Weather Forecast

Advertisements
Track Severe Weather on mobile